Axtel, Kentucky
Current Conditions -  °F | °C
As of 12:58 AM on Sunday 21 Dec 2014 (Local Time) from KFTK Reporting Station
Clear Clear  
Wind Chill: 23°   Ceiling: Unl
Heat Index: 23°   Visibility: 7mi
Dew Point: 21°   Wind: 2mph
Humidity: 92%   Direction: 50°NE
Pressure: 30.27"   Gusts: NA
Location:  37.7834°N, 86.4612°W
Report Text: KFTK 210658Z AUTO 05002KT 7SM R18/5000FT CLR M05/M06 A3027 RMK AO2 SLP261 T10481059
Loading
Personal Weather Stations






























Interactive Weather Map New forecast layout! Learn more

10-Day Weather Forecast

Advertisements
Track Severe Weather on mobile